createdAt,value
2018-12-23T02:46:37.803Z,0.00
2018-12-23T02:47:37.793Z,0.00
2018-12-23T02:48:37.766Z,0.00
2018-12-23T02:49:37.756Z,0.00
2018-12-23T02:50:37.747Z,0.00
2018-12-23T02:51:37.735Z,0.00
2018-12-23T02:52:37.744Z,0.00
2018-12-23T02:53:37.718Z,0.00
2018-12-23T02:54:37.723Z,0.00
2018-12-23T02:55:37.695Z,0.00
2018-12-23T02:56:37.683Z,0.00
2018-12-23T02:57:37.693Z,0.00
2018-12-23T02:58:37.712Z,0.00
2018-12-23T02:59:37.655Z,0.00
2018-12-23T03:00:37.680Z,0.00
2018-12-23T03:01:37.632Z,0.00
2018-12-23T03:02:37.675Z,0.00
2018-12-23T03:03:37.610Z,0.00
2018-12-23T03:04:37.618Z,0.00
2018-12-23T03:05:37.590Z,0.00
2018-12-23T03:06:37.576Z,0.00
2018-12-23T03:07:37.584Z,0.00
2018-12-23T03:08:37.562Z,0.00
2018-12-23T03:09:37.547Z,0.00
2018-12-23T03:10:37.545Z,0.00
2018-12-23T03:11:37.523Z,0.00
2018-12-23T03:12:37.536Z,0.00
2018-12-23T03:13:37.504Z,0.00
2018-12-23T03:14:37.538Z,0.00
2018-12-23T03:15:37.488Z,0.00
2018-12-23T03:16:37.471Z,0.00
2018-12-23T03:17:37.479Z,0.00
2018-12-23T03:18:37.447Z,0.00
2018-12-23T03:19:37.491Z,0.00
2018-12-23T03:20:37.434Z,0.00
2018-12-23T03:21:37.416Z,0.00
2018-12-23T03:22:37.459Z,0.00
2018-12-23T03:23:37.395Z,0.00
2018-12-23T03:24:37.388Z,0.00
2018-12-23T03:25:37.375Z,0.00
2018-12-23T03:26:37.376Z,0.00
2018-12-23T03:27:37.390Z,0.00
2018-12-23T03:28:44.386Z,0.00
2018-12-23T03:29:37.329Z,0.00
2018-12-23T03:30:37.329Z,0.00
2018-12-23T03:31:37.316Z,0.00
2018-12-23T03:32:37.323Z,0.00
2018-12-23T03:33:37.288Z,0.00
2018-12-23T03:34:37.276Z,0.00
2018-12-23T03:35:37.268Z,0.00
2018-12-23T03:36:37.266Z,0.00
2018-12-23T03:37:37.272Z,0.00
2018-12-23T03:38:37.237Z,0.00
2018-12-23T03:39:37.225Z,0.00
2018-12-23T03:40:37.220Z,0.00
2018-12-23T03:41:37.206Z,0.00
2018-12-23T03:42:37.216Z,0.00
2018-12-23T03:43:37.179Z,0.00
2018-12-23T03:44:37.169Z,0.00
2018-12-23T03:45:37.160Z,0.00
2018-12-23T03:46:37.159Z,0.00
2018-12-23T03:47:37.161Z,0.00
2018-12-23T03:48:37.130Z,0.00
2018-12-23T03:49:37.127Z,0.00
2018-12-23T03:50:37.129Z,0.00
2018-12-23T03:51:37.095Z,0.00
2018-12-23T03:52:37.114Z,0.00
2018-12-23T03:53:37.078Z,0.00
2018-12-23T03:54:37.069Z,0.00
2018-12-23T03:55:37.053Z,0.00
2018-12-23T03:56:37.056Z,0.00
2018-12-23T03:57:37.037Z,0.00
2018-12-23T03:58:37.038Z,0.00
2018-12-23T03:59:37.010Z,0.00
2018-12-23T04:00:37.002Z,0.00
2018-12-23T04:01:37.069Z,0.00
2018-12-23T04:02:36.978Z,0.00
2018-12-23T04:03:36.985Z,0.00
2018-12-23T04:04:36.954Z,0.00
2018-12-23T04:05:36.943Z,0.00
2018-12-23T04:06:36.946Z,0.00
2018-12-23T04:07:36.932Z,0.00
2018-12-23T04:08:36.935Z,0.00
2018-12-23T04:09:36.903Z,0.00
2018-12-23T04:10:36.891Z,0.00
2018-12-23T04:11:36.889Z,0.00
2018-12-23T04:12:36.872Z,0.00
2018-12-23T04:13:36.894Z,0.00
2018-12-23T04:14:36.864Z,0.00
2018-12-23T04:15:36.859Z,0.00
2018-12-23T04:16:36.826Z,0.00
2018-12-23T04:17:36.816Z,0.00
2018-12-23T04:18:36.830Z,0.00
2018-12-23T04:19:36.799Z,0.00
2018-12-23T04:20:36.786Z,0.00
2018-12-23T04:21:36.784Z,0.00
2018-12-23T04:22:36.762Z,0.00
2018-12-23T04:23:36.769Z,0.00
2018-12-23T04:24:36.742Z,0.00
2018-12-23T04:25:36.733Z,0.00
2018-12-23T04:26:36.725Z,0.00
2018-12-23T04:27:36.708Z,0.00
2018-12-23T04:28:36.714Z,0.00
2018-12-23T04:29:36.687Z,0.00
2018-12-23T04:30:36.682Z,0.00
2018-12-23T04:31:36.672Z,0.00
2018-12-23T04:32:36.673Z,0.00
2018-12-23T04:33:36.678Z,0.00
2018-12-23T04:34:36.642Z,0.00
2018-12-23T04:35:36.622Z,0.00
2018-12-23T04:36:36.611Z,0.00
2018-12-23T04:37:36.602Z,0.00
2018-12-23T04:38:36.611Z,0.00
2018-12-23T04:39:36.587Z,0.00
2018-12-23T04:40:36.568Z,0.00
2018-12-23T04:41:36.559Z,0.00
2018-12-23T04:42:36.559Z,0.00
2018-12-23T04:43:36.558Z,0.00
2018-12-23T04:44:36.526Z,0.00
2018-12-23T04:45:36.519Z,0.00
2018-12-23T04:46:36.504Z,0.00
2018-12-23T04:47:36.493Z,0.00
2018-12-23T04:48:36.501Z,0.00
2018-12-23T04:49:36.474Z,0.00
2018-12-23T04:50:36.463Z,0.00
2018-12-23T04:51:36.451Z,0.00
2018-12-23T04:52:36.448Z,0.00
2018-12-23T04:53:36.448Z,0.00
2018-12-23T04:54:36.423Z,0.00
2018-12-23T04:55:36.408Z,0.00
2018-12-23T04:56:36.398Z,0.00
2018-12-23T04:57:36.390Z,0.00
2018-12-23T04:58:36.394Z,0.00
2018-12-23T04:59:36.375Z,0.00
2018-12-23T05:00:36.355Z,0.00
2018-12-23T05:01:36.355Z,0.00
2018-12-23T05:02:36.335Z,0.00
2018-12-23T05:03:42.639Z,0.00
2018-12-23T05:04:37.418Z,0.00
2018-12-23T05:05:36.301Z,0.00
2018-12-23T05:06:43.244Z,0.00
2018-12-23T05:07:37.292Z,0.00
2018-12-23T05:08:36.302Z,0.00
2018-12-23T05:09:36.256Z,0.00
2018-12-23T05:10:36.246Z,0.00
2018-12-23T05:11:36.238Z,0.00
2018-12-23T05:12:36.231Z,0.00
2018-12-23T05:13:36.232Z,0.00
2018-12-23T05:14:36.206Z,0.00
2018-12-23T05:15:36.197Z,0.00
2018-12-23T05:16:36.184Z,0.00
2018-12-23T05:17:36.179Z,0.00
2018-12-23T05:18:36.196Z,0.00
2018-12-23T05:19:36.150Z,0.00
2018-12-23T05:20:36.140Z,0.00
2018-12-23T05:21:36.127Z,0.00
2018-12-23T05:22:36.128Z,0.00
2018-12-23T05:23:36.106Z,0.00
2018-12-23T05:24:36.127Z,0.00
2018-12-23T05:25:36.100Z,0.00
2018-12-23T05:26:36.075Z,0.00
2018-12-23T05:27:36.067Z,0.00
2018-12-23T05:28:36.053Z,0.00
2018-12-23T05:29:36.060Z,0.00
2018-12-23T05:30:36.038Z,0.00
2018-12-23T05:31:36.047Z,0.00
2018-12-23T05:32:36.012Z,0.00
2018-12-23T05:33:35.999Z,0.00
2018-12-23T05:34:36.006Z,0.00
2018-12-23T05:35:35.982Z,0.00
2018-12-23T05:36:35.971Z,0.00
2018-12-23T05:37:35.960Z,0.00
2018-12-23T05:38:35.945Z,0.00
2018-12-23T05:39:35.963Z,0.00
2018-12-23T05:40:35.928Z,0.00
2018-12-23T05:41:35.917Z,0.00
2018-12-23T05:42:35.908Z,0.00
2018-12-23T05:43:35.891Z,0.00
2018-12-23T05:44:35.913Z,0.00
2018-12-23T05:45:35.878Z,0.00
2018-12-23T05:46:35.861Z,0.00
2018-12-23T05:47:35.850Z,0.00
2018-12-23T05:48:35.843Z,0.00
2018-12-23T05:49:35.848Z,0.00
2018-12-23T05:50:35.822Z,0.00
2018-12-23T05:51:35.811Z,0.00
2018-12-23T05:52:35.797Z,0.00
2018-12-23T05:53:35.796Z,0.00
2018-12-23T05:54:35.794Z,0.00
2018-12-23T05:55:35.767Z,0.00
2018-12-23T05:56:35.751Z,0.00
2018-12-23T05:57:35.743Z,0.00
2018-12-23T05:58:35.730Z,0.00
2018-12-23T05:59:35.763Z,0.00
2018-12-23T06:00:35.713Z,0.00
2018-12-23T06:01:35.699Z,0.00
2018-12-23T06:02:35.690Z,0.00
2018-12-23T06:03:35.678Z,0.00
2018-12-23T06:04:35.668Z,0.00
2018-12-23T06:05:35.687Z,0.00
2018-12-23T06:06:35.669Z,0.00
2018-12-23T06:07:35.638Z,0.00
2018-12-23T06:08:35.629Z,0.00
2018-12-23T06:09:35.620Z,0.00
2018-12-23T06:10:35.622Z,0.00
2018-12-23T06:11:35.595Z,0.00
2018-12-23T06:12:35.584Z,0.00
2018-12-23T06:13:35.571Z,0.00
2018-12-23T06:14:35.564Z,0.00
2018-12-23T06:15:35.572Z,0.00
2018-12-23T06:16:35.539Z,0.00
2018-12-23T06:17:35.528Z,0.00
2018-12-23T06:18:35.519Z,0.00
2018-12-23T06:19:35.515Z,0.00
2018-12-23T06:20:35.514Z,0.00
2018-12-23T06:21:35.484Z,0.00
2018-12-23T06:22:35.478Z,0.00
2018-12-23T06:23:35.464Z,0.00
2018-12-23T06:24:35.560Z,0.00
2018-12-23T06:25:35.460Z,0.00
2018-12-23T06:26:35.443Z,0.00
2018-12-23T06:27:35.421Z,0.00
2018-12-23T06:28:35.408Z,0.00
2018-12-23T06:29:35.421Z,0.00
2018-12-23T06:30:35.389Z,0.00
2018-12-23T06:31:35.395Z,0.00
2018-12-23T06:32:35.364Z,0.00
2018-12-23T06:33:35.366Z,0.00
2018-12-23T06:34:35.344Z,0.00
2018-12-23T06:35:35.341Z,0.00
2018-12-23T06:36:35.344Z,0.00
2018-12-23T06:37:35.315Z,0.00
2018-12-23T06:38:35.301Z,0.00
2018-12-23T06:39:35.293Z,0.00
2018-12-23T06:40:35.284Z,0.00
2018-12-23T06:41:35.301Z,0.00
2018-12-23T06:42:35.261Z,0.00
2018-12-23T06:43:35.252Z,0.00
2018-12-23T06:44:35.237Z,0.00
2018-12-23T06:45:35.235Z,0.00
2018-12-23T06:46:35.235Z,0.00
2018-12-23T06:47:35.208Z,0.00
2018-12-23T06:48:35.649Z,0.00
2018-12-23T06:49:35.184Z,0.00
2018-12-23T06:50:35.175Z,0.00
2018-12-23T06:51:35.181Z,0.00
2018-12-23T06:52:35.162Z,0.00
2018-12-23T06:53:35.142Z,0.00
2018-12-23T06:54:35.130Z,0.00
2018-12-23T06:55:35.123Z,0.00
2018-12-23T06:56:35.141Z,0.00
2018-12-23T06:57:35.098Z,0.00
2018-12-23T06:58:35.087Z,0.00
2018-12-23T06:59:35.091Z,0.00
2018-12-23T07:00:35.065Z,0.00
2018-12-23T07:01:35.077Z,0.00
2018-12-23T07:02:35.044Z,0.00
2018-12-23T07:03:35.034Z,0.00
2018-12-23T07:04:35.024Z,0.00
2018-12-23T07:05:35.014Z,0.00
2018-12-23T07:06:35.029Z,0.00
2018-12-23T07:07:34.991Z,0.00
2018-12-23T07:08:34.983Z,0.00
2018-12-23T07:09:34.974Z,4.00
2018-12-23T07:10:34.961Z,4.00
2018-12-23T07:11:34.947Z,0.00
2018-12-23T07:12:34.961Z,4.00
2018-12-23T07:13:34.931Z,4.00
2018-12-23T07:14:34.938Z,8.00
2018-12-23T07:15:34.908Z,4.00
2018-12-23T07:16:34.894Z,8.00
2018-12-23T07:17:34.904Z,8.00
2018-12-23T07:18:34.887Z,8.00
2018-12-23T07:19:34.864Z,8.00
2018-12-23T07:20:34.863Z,8.00
2018-12-23T07:21:34.845Z,12.00
2018-12-23T07:22:34.851Z,8.00
2018-12-23T07:23:34.833Z,12.00
2018-12-23T07:24:34.808Z,12.00
2018-12-23T07:25:34.800Z,12.00
2018-12-23T07:26:34.785Z,12.00
2018-12-23T07:27:34.794Z,16.00
2018-12-23T07:28:34.768Z,12.00
2018-12-23T07:29:34.754Z,12.00
2018-12-23T07:30:34.743Z,16.00
2018-12-23T07:31:34.737Z,20.00
2018-12-23T07:32:34.742Z,20.00
2018-12-23T07:33:34.712Z,24.00
2018-12-23T07:34:34.701Z,20.00
2018-12-23T07:35:34.688Z,24.00
2018-12-23T07:36:34.688Z,24.00
2018-12-23T07:37:34.745Z,32.00
2018-12-23T07:38:34.656Z,32.00
2018-12-23T07:39:34.654Z,44.00
2018-12-23T07:40:34.642Z,52.00
2018-12-23T07:41:34.630Z,52.00
2018-12-23T07:42:34.633Z,44.00
2018-12-23T07:43:34.623Z,52.00
2018-12-23T07:44:34.619Z,64.00
2018-12-23T07:45:34.583Z,76.00
2018-12-23T07:46:34.580Z,88.00
2018-12-23T07:47:34.576Z,88.00
2018-12-23T07:48:34.866Z,104.00
2018-12-23T07:49:34.551Z,116.00
2018-12-23T07:50:34.653Z,124.00
2018-12-23T07:51:34.645Z,132.00
2018-12-23T07:52:34.506Z,136.00
2018-12-23T07:53:34.523Z,132.00
2018-12-23T07:54:34.510Z,132.00
2018-12-23T07:55:34.475Z,132.00
2018-12-23T07:56:34.489Z,128.00
2018-12-23T07:57:34.473Z,168.00
2018-12-23T07:58:34.462Z,160.00
2018-12-23T07:59:34.437Z,172.00
2018-12-23T08:00:34.449Z,164.00
2018-12-23T08:01:34.414Z,152.00
2018-12-23T08:02:34.399Z,176.00
2018-12-23T08:03:34.408Z,192.00
2018-12-23T08:04:34.406Z,204.00
2018-12-23T08:05:34.369Z,228.00
2018-12-23T08:06:34.367Z,232.00
2018-12-23T08:07:36.237Z,228.00
2018-12-23T08:08:34.423Z,236.00
2018-12-23T08:09:34.323Z,220.00
2018-12-23T08:10:34.327Z,276.00
2018-12-23T08:11:34.311Z,292.00
2018-12-23T08:12:34.291Z,308.00
2018-12-23T08:13:34.319Z,364.00
2018-12-23T08:14:34.315Z,344.00
2018-12-23T08:15:34.259Z,364.00
2018-12-23T08:16:34.265Z,328.00
2018-12-23T08:17:34.248Z,344.00
2018-12-23T08:18:34.245Z,380.00
2018-12-23T08:19:34.237Z,384.00
2018-12-23T08:20:34.207Z,376.00
2018-12-23T08:21:34.199Z,344.00
2018-12-23T08:22:34.196Z,408.00
2018-12-23T08:23:34.173Z,396.00
2018-12-23T08:24:34.194Z,408.00
2018-12-23T08:25:35.657Z,340.00
2018-12-23T08:26:34.142Z,324.00
2018-12-23T08:27:34.131Z,344.00
2018-12-23T08:28:34.119Z,336.00
2018-12-23T08:29:34.135Z,332.00
2018-12-23T08:30:34.127Z,368.00
2018-12-23T08:31:34.110Z,380.00
2018-12-23T08:32:34.079Z,384.00
2018-12-23T08:33:34.067Z,424.00
2018-12-23T08:34:34.077Z,432.00
2018-12-23T08:35:34.146Z,396.00
2018-12-23T08:36:34.041Z,412.00
2018-12-23T08:37:34.022Z,452.00
2018-12-23T08:38:34.034Z,448.00
2018-12-23T08:39:34.020Z,468.00
2018-12-23T08:40:33.991Z,488.00
2018-12-23T08:41:34.026Z,512.00
2018-12-23T08:42:33.971Z,528.00
2018-12-23T08:43:33.963Z,536.00
2018-12-23T08:44:33.969Z,548.00
2018-12-23T08:45:33.937Z,480.00
2018-12-23T08:46:39.121Z,484.00
2018-12-23T08:47:34.916Z,540.00
2018-12-23T08:48:33.905Z,516.00
2018-12-23T08:49:33.920Z,488.00
2018-12-23T08:50:33.902Z,592.00
2018-12-23T08:51:33.880Z,608.00
2018-12-23T08:52:33.886Z,584.00
2018-12-23T08:53:33.851Z,568.00
2018-12-23T08:54:33.981Z,528.00
2018-12-23T08:55:33.831Z,584.00
2018-12-23T08:56:33.819Z,712.00
2018-12-23T08:57:35.396Z,640.00
2018-12-23T08:58:33.801Z,560.00
2018-12-23T08:59:33.789Z,696.00
2018-12-23T09:00:33.795Z,788.00
2018-12-23T09:01:33.767Z,768.00
2018-12-23T09:02:33.753Z,892.00
2018-12-23T09:03:33.759Z,908.00
2018-12-23T09:04:33.731Z,952.00
2018-12-23T09:05:33.738Z,956.00
2018-12-23T09:06:33.712Z,960.00
2018-12-23T09:07:33.699Z,972.00
2018-12-23T09:08:33.689Z,968.00
2018-12-23T09:09:33.687Z,972.00
2018-12-23T09:10:33.686Z,968.00
2018-12-23T09:11:33.655Z,964.00
2018-12-23T09:12:33.650Z,960.00
2018-12-23T09:13:33.635Z,952.00
2018-12-23T09:14:33.624Z,944.00
2018-12-23T09:15:33.642Z,940.00
2018-12-23T09:16:33.606Z,952.00
2018-12-23T09:17:33.589Z,964.00
2018-12-23T09:18:33.584Z,972.00
2018-12-23T09:19:33.570Z,980.00
2018-12-23T09:20:33.575Z,996.00
2018-12-23T09:21:33.554Z,1020.00
2018-12-23T09:22:33.652Z,1040.00
2018-12-23T09:23:33.524Z,1064.00
2018-12-23T09:24:33.519Z,1084.00
2018-12-23T09:25:33.528Z,1100.00
2018-12-23T09:26:33.494Z,1116.00
2018-12-23T09:27:33.490Z,1124.00
2018-12-23T09:28:33.475Z,1124.00
2018-12-23T09:29:33.462Z,1136.00
2018-12-23T09:30:33.468Z,1152.00
2018-12-23T09:31:33.440Z,1172.00
2018-12-23T09:32:33.430Z,1204.00
2018-12-23T09:33:33.428Z,1240.00
2018-12-23T09:34:33.407Z,1252.00
2018-12-23T09:35:33.416Z,1236.00
2018-12-23T09:36:33.389Z,1216.00
2018-12-23T09:37:33.379Z,1204.00
2018-12-23T09:38:33.363Z,1208.00
2018-12-23T09:39:33.360Z,1220.00
2018-12-23T09:40:33.361Z,1224.00
2018-12-23T09:41:33.331Z,1228.00
2018-12-23T09:42:33.324Z,1220.00
2018-12-23T09:43:33.309Z,1220.00
2018-12-23T09:44:33.307Z,1232.00
2018-12-23T09:45:33.305Z,1248.00
2018-12-23T09:46:33.279Z,1268.00
2018-12-23T09:47:33.266Z,1288.00
2018-12-23T09:48:33.262Z,1304.00
2018-12-23T09:49:33.248Z,1316.00
2018-12-23T09:50:33.259Z,1308.00
2018-12-23T09:51:33.231Z,1284.00
2018-12-23T09:52:33.219Z,1256.00
2018-12-23T09:53:33.202Z,1192.00
2018-12-23T09:54:33.193Z,1088.00
2018-12-23T09:55:33.199Z,1020.00
2018-12-23T09:56:33.169Z,1044.00
2018-12-23T09:57:33.160Z,1080.00
2018-12-23T09:58:33.150Z,1060.00
2018-12-23T09:59:33.136Z,1048.00
2018-12-23T10:00:33.142Z,1056.00
2018-12-23T10:01:33.114Z,1076.00
2018-12-23T10:02:33.548Z,1076.00
2018-12-23T10:03:33.094Z,1064.00
2018-12-23T10:04:33.086Z,1052.00
2018-12-23T10:05:33.092Z,1052.00
2018-12-23T10:06:33.073Z,1052.00
2018-12-23T10:07:33.051Z,1056.00
2018-12-23T10:08:33.041Z,1060.00
2018-12-23T10:09:33.029Z,1052.00
2018-12-23T10:10:33.045Z,1036.00
2018-12-23T10:11:33.009Z,1028.00
2018-12-23T10:12:33.010Z,1028.00
2018-12-23T10:13:32.995Z,1028.00
2018-12-23T10:14:32.974Z,1028.00
2018-12-23T10:15:32.981Z,1012.00
2018-12-23T10:16:32.952Z,988.00
2018-12-23T10:17:32.940Z,980.00
2018-12-23T10:18:32.930Z,964.00
2018-12-23T10:19:32.927Z,932.00
2018-12-23T10:20:32.950Z,928.00
2018-12-23T10:21:32.910Z,916.00
2018-12-23T10:22:32.886Z,924.00
2018-12-23T10:23:32.877Z,904.00
2018-12-23T10:24:32.877Z,896.00
2018-12-23T10:25:32.884Z,908.00
2018-12-23T10:26:32.844Z,916.00
2018-12-23T10:27:32.840Z,904.00
2018-12-23T10:28:32.821Z,888.00
2018-12-23T10:29:32.814Z,856.00
2018-12-23T10:30:32.826Z,820.00
2018-12-23T10:31:32.794Z,820.00
2018-12-23T10:32:32.776Z,812.00
2018-12-23T10:33:32.769Z,848.00
2018-12-23T10:34:33.262Z,832.00
2018-12-23T10:35:32.884Z,816.00
2018-12-23T10:36:32.735Z,796.00
2018-12-23T10:37:32.731Z,808.00
2018-12-23T10:38:32.711Z,812.00
2018-12-23T10:39:32.699Z,812.00
2018-12-23T10:40:32.709Z,784.00
2018-12-23T10:41:32.679Z,736.00
2018-12-23T10:42:32.670Z,728.00
2018-12-23T10:43:32.663Z,708.00
2018-12-23T10:44:32.658Z,704.00
2018-12-23T10:45:32.661Z,696.00
2018-12-23T10:46:32.630Z,688.00
2018-12-23T10:47:32.613Z,716.00
2018-12-23T10:48:32.611Z,720.00
2018-12-23T10:49:32.591Z,732.00
2018-12-23T10:50:32.599Z,744.00
2018-12-23T10:51:32.584Z,724.00
2018-12-23T10:52:32.562Z,660.00
2018-12-23T10:53:32.554Z,556.00
2018-12-23T10:54:32.537Z,500.00
2018-12-23T10:55:32.589Z,476.00
2018-12-23T10:56:32.516Z,392.00
2018-12-23T10:57:32.504Z,412.00
2018-12-23T10:58:32.511Z,436.00
2018-12-23T10:59:32.484Z,408.00
2018-12-23T11:00:32.475Z,396.00
2018-12-23T11:01:32.475Z,404.00
2018-12-23T11:02:32.449Z,372.00
2018-12-23T11:03:32.440Z,356.00
2018-12-23T11:04:32.427Z,380.00
2018-12-23T11:05:32.417Z,388.00
2018-12-23T11:06:32.425Z,420.00
2018-12-23T11:07:32.398Z,528.00
2018-12-23T11:08:32.439Z,536.00
2018-12-23T11:09:32.370Z,636.00
2018-12-23T11:10:32.361Z,720.00
2018-12-23T11:11:32.367Z,716.00
2018-12-23T11:12:32.348Z,708.00
2018-12-23T11:13:32.329Z,740.00
2018-12-23T11:14:32.317Z,780.00
2018-12-23T11:15:32.305Z,812.00
2018-12-23T11:16:32.313Z,816.00
2018-12-23T11:17:32.290Z,716.00
2018-12-23T11:18:32.292Z,596.00
2018-12-23T11:19:32.266Z,624.00
2018-12-23T11:20:32.253Z,640.00
2018-12-23T11:21:32.261Z,560.00
2018-12-23T11:22:32.267Z,464.00
2018-12-23T11:23:32.219Z,476.00
2018-12-23T11:24:32.215Z,508.00
2018-12-23T11:25:32.197Z,592.00
2018-12-23T11:26:32.205Z,696.00
2018-12-23T11:27:32.179Z,716.00
2018-12-23T11:28:32.165Z,732.00
2018-12-23T11:29:32.160Z,804.00
2018-12-23T11:30:32.157Z,860.00
2018-12-23T11:31:32.152Z,872.00
2018-12-23T11:32:32.121Z,880.00
2018-12-23T11:33:32.111Z,900.00
2018-12-23T11:34:32.102Z,916.00
2018-12-23T11:35:32.094Z,912.00
2018-12-23T11:36:32.129Z,892.00
2018-12-23T11:37:32.070Z,844.00
2018-12-23T11:38:35.642Z,800.00
2018-12-23T11:39:32.051Z,760.00
2018-12-23T11:40:32.039Z,708.00
2018-12-23T11:41:32.046Z,708.00
2018-12-23T11:42:32.016Z,700.00
2018-12-23T11:43:32.006Z,700.00
2018-12-23T11:44:32.007Z,776.00
2018-12-23T11:45:31.982Z,832.00
2018-12-23T11:46:31.994Z,852.00
2018-12-23T11:47:31.970Z,852.00
2018-12-23T11:48:32.840Z,848.00
2018-12-23T11:49:31.944Z,840.00
2018-12-23T11:50:31.952Z,848.00
2018-12-23T11:51:31.940Z,860.00
2018-12-23T11:52:31.907Z,860.00
2018-12-23T11:53:31.898Z,856.00
2018-12-23T11:54:31.886Z,844.00
2018-12-23T11:55:31.875Z,840.00
2018-12-23T11:56:31.886Z,832.00
2018-12-23T11:57:31.859Z,824.00
2018-12-23T11:58:31.850Z,828.00
2018-12-23T11:59:31.835Z,836.00
2018-12-23T12:00:31.821Z,840.00
2018-12-23T12:01:31.831Z,844.00
2018-12-23T12:02:31.799Z,860.00
2018-12-23T12:03:31.788Z,876.00
2018-12-23T12:04:31.786Z,900.00
2018-12-23T12:05:31.766Z,928.00
2018-12-23T12:06:31.804Z,952.00
2018-12-23T12:07:31.744Z,956.00
2018-12-23T12:08:31.734Z,924.00
2018-12-23T12:09:31.722Z,884.00
2018-12-23T12:10:31.710Z,844.00
2018-12-23T12:11:31.733Z,804.00
2018-12-23T12:12:31.691Z,764.00
2018-12-23T12:13:31.680Z,732.00
2018-12-23T12:14:31.669Z,736.00
2018-12-23T12:15:31.656Z,752.00
2018-12-23T12:16:31.673Z,748.00
2018-12-23T12:17:31.655Z,696.00
2018-12-23T12:18:31.634Z,676.00
2018-12-23T12:19:31.630Z,704.00
2018-12-23T12:20:31.605Z,748.00
2018-12-23T12:21:31.614Z,776.00
2018-12-23T12:22:31.581Z,776.00
2018-12-23T12:23:31.582Z,760.00
2018-12-23T12:24:31.567Z,760.00
2018-12-23T12:25:31.573Z,744.00
2018-12-23T12:26:31.558Z,712.00
2018-12-23T12:27:31.530Z,672.00
2018-12-23T12:28:31.551Z,628.00
2018-12-23T12:29:31.515Z,572.00
2018-12-23T12:30:31.495Z,544.00
2018-12-23T12:31:31.510Z,540.00
2018-12-23T12:32:31.488Z,576.00
2018-12-23T12:33:31.478Z,580.00
2018-12-23T12:34:31.453Z,560.00
2018-12-23T12:35:31.465Z,548.00
2018-12-23T12:36:31.456Z,540.00
2018-12-23T12:37:31.422Z,516.00
2018-12-23T12:38:31.416Z,480.00
2018-12-23T12:39:31.407Z,468.00
2018-12-23T12:40:31.388Z,480.00
2018-12-23T12:41:31.446Z,508.00
2018-12-23T12:42:31.367Z,492.00
2018-12-23T12:43:31.356Z,476.00
2018-12-23T12:44:31.352Z,460.00
2018-12-23T12:45:31.343Z,444.00
2018-12-23T12:46:31.322Z,476.00
2018-12-23T12:47:31.339Z,488.00
2018-12-23T12:48:31.305Z,520.00
2018-12-23T12:49:31.289Z,528.00
2018-12-23T12:50:31.286Z,536.00
2018-12-23T12:51:31.267Z,544.00
2018-12-23T12:52:31.278Z,548.00
2018-12-23T12:53:31.247Z,548.00
2018-12-23T12:54:31.244Z,536.00
2018-12-23T12:55:31.222Z,520.00
2018-12-23T12:56:31.211Z,504.00
2018-12-23T12:57:31.226Z,500.00
2018-12-23T12:58:31.189Z,500.00
2018-12-23T12:59:31.180Z,504.00
2018-12-23T13:00:31.173Z,504.00
2018-12-23T13:01:31.157Z,484.00
2018-12-23T13:02:31.165Z,468.00
2018-12-23T13:03:31.138Z,452.00
2018-12-23T13:04:31.124Z,448.00
2018-12-23T13:05:31.111Z,460.00
2018-12-23T13:06:31.101Z,460.00
2018-12-23T13:07:31.108Z,456.00
2018-12-23T13:08:31.080Z,432.00
2018-12-23T13:09:32.326Z,400.00
2018-12-23T13:10:31.058Z,380.00
2018-12-23T13:11:31.048Z,372.00
2018-12-23T13:12:31.058Z,368.00
2018-12-23T13:13:31.028Z,360.00
2018-12-23T13:14:31.015Z,348.00
2018-12-23T13:15:31.013Z,352.00
2018-12-23T13:16:30.996Z,388.00
2018-12-23T13:17:31.001Z,424.00
2018-12-23T13:18:30.972Z,440.00
2018-12-23T13:19:30.959Z,452.00
2018-12-23T13:20:30.950Z,448.00
2018-12-23T13:21:30.951Z,404.00
2018-12-23T13:22:30.945Z,360.00
2018-12-23T13:23:30.918Z,344.00
2018-12-23T13:24:30.905Z,372.00
2018-12-23T13:25:30.895Z,416.00
2018-12-23T13:26:30.883Z,424.00
2018-12-23T13:27:30.897Z,420.00
2018-12-23T13:28:30.863Z,412.00
2018-12-23T13:29:30.854Z,408.00
2018-12-23T13:30:30.845Z,408.00
2018-12-23T13:31:30.831Z,396.00
2018-12-23T13:32:30.840Z,384.00
2018-12-23T13:33:30.822Z,368.00
2018-12-23T13:34:30.798Z,364.00
2018-12-23T13:35:30.897Z,364.00
2018-12-23T13:36:30.780Z,360.00
2018-12-23T13:37:30.785Z,360.00
2018-12-23T13:38:30.755Z,364.00
2018-12-23T13:39:30.745Z,360.00
2018-12-23T13:40:30.747Z,360.00
2018-12-23T13:41:30.723Z,380.00
2018-12-23T13:42:30.731Z,380.00
2018-12-23T13:43:30.702Z,364.00
2018-12-23T13:44:30.690Z,348.00
2018-12-23T13:45:30.682Z,332.00
2018-12-23T13:46:30.680Z,320.00
2018-12-23T13:47:30.680Z,332.00
2018-12-23T13:48:30.649Z,340.00
2018-12-23T13:49:30.637Z,344.00
2018-12-23T13:50:30.626Z,340.00
2018-12-23T13:51:30.616Z,336.00
2018-12-23T13:52:30.664Z,332.00
2018-12-23T13:53:30.594Z,336.00
2018-12-23T13:54:30.582Z,336.00
2018-12-23T13:55:30.572Z,324.00
2018-12-23T13:56:30.563Z,324.00
2018-12-23T13:57:30.863Z,336.00
2018-12-23T13:58:30.541Z,344.00
2018-12-23T13:59:30.534Z,352.00
2018-12-23T14:00:30.520Z,360.00
2018-12-23T14:01:30.508Z,356.00
2018-12-23T14:02:30.513Z,352.00
2018-12-23T14:03:30.505Z,340.00
2018-12-23T14:04:30.499Z,340.00
2018-12-23T14:05:30.466Z,348.00
2018-12-23T14:06:30.453Z,352.00
2018-12-23T14:07:30.486Z,360.00
2018-12-23T14:08:30.453Z,376.00
2018-12-23T14:09:30.421Z,384.00
2018-12-23T14:10:30.415Z,384.00
2018-12-23T14:11:30.412Z,384.00
2018-12-23T14:12:30.390Z,376.00
2018-12-23T14:13:30.397Z,380.00
2018-12-23T14:14:30.368Z,380.00
2018-12-23T14:15:30.362Z,380.00
2018-12-23T14:16:30.346Z,372.00
2018-12-23T14:17:30.356Z,360.00
2018-12-23T14:18:30.343Z,340.00
2018-12-23T14:19:30.314Z,320.00
2018-12-23T14:20:30.303Z,300.00
2018-12-23T14:21:30.292Z,284.00
2018-12-23T14:22:30.283Z,272.00
2018-12-23T14:23:30.307Z,260.00
2018-12-23T14:24:31.290Z,244.00
2018-12-23T14:25:30.250Z,224.00
2018-12-23T14:26:30.259Z,216.00
2018-12-23T14:27:30.228Z,212.00
2018-12-23T14:28:30.217Z,204.00
2018-12-23T14:29:30.240Z,192.00
2018-12-23T14:30:30.195Z,180.00
2018-12-23T14:31:30.193Z,168.00
2018-12-23T14:32:30.175Z,156.00
2018-12-23T14:33:30.166Z,148.00
2018-12-23T14:34:30.170Z,148.00
2018-12-23T14:35:32.134Z,148.00
2018-12-23T14:36:30.132Z,148.00
2018-12-23T14:37:30.121Z,152.00
2018-12-23T14:38:30.109Z,148.00
2018-12-23T14:39:30.119Z,144.00
2018-12-23T14:40:30.094Z,132.00
2018-12-23T14:41:30.087Z,124.00
2018-12-23T14:42:30.067Z,116.00
2018-12-23T14:43:30.057Z,108.00
2018-12-23T14:44:30.063Z,112.00
2018-12-23T14:45:30.035Z,112.00
2018-12-23T14:46:30.026Z,108.00
2018-12-23T14:47:30.021Z,104.00
2018-12-23T14:48:30.004Z,104.00
2018-12-23T14:49:30.012Z,100.00
2018-12-23T14:50:29.981Z,96.00
2018-12-23T14:51:29.969Z,92.00
2018-12-23T14:52:29.962Z,88.00
2018-12-23T14:53:29.967Z,84.00
2018-12-23T14:54:29.957Z,80.00
2018-12-23T14:55:29.928Z,80.00
2018-12-23T14:56:29.962Z,80.00
2018-12-23T14:57:30.862Z,76.00
2018-12-23T14:58:29.900Z,72.00
2018-12-23T14:59:29.925Z,72.00
2018-12-23T15:00:29.877Z,68.00
2018-12-23T15:01:29.864Z,56.00
2018-12-23T15:02:29.853Z,52.00
2018-12-23T15:03:29.843Z,44.00
2018-12-23T15:04:29.849Z,44.00
2018-12-23T15:05:29.828Z,36.00
2018-12-23T15:06:29.811Z,40.00
2018-12-23T15:07:29.803Z,32.00
2018-12-23T15:08:29.791Z,32.00
2018-12-23T15:09:34.192Z,32.00
2018-12-23T15:10:29.770Z,28.00
2018-12-23T15:11:29.774Z,32.00
2018-12-23T15:12:29.757Z,32.00
2018-12-23T15:13:29.735Z,32.00
2018-12-23T15:14:29.748Z,28.00
2018-12-23T15:15:29.713Z,28.00
2018-12-23T15:16:29.734Z,28.00
2018-12-23T15:17:29.695Z,24.00
2018-12-23T15:18:29.690Z,24.00
2018-12-23T15:19:29.673Z,24.00
2018-12-23T15:20:29.691Z,24.00
2018-12-23T15:21:29.655Z,20.00
2018-12-23T15:22:29.644Z,20.00
2018-12-23T15:23:29.630Z,16.00
2018-12-23T15:24:29.628Z,16.00
2018-12-23T15:25:29.643Z,16.00
2018-12-23T15:26:29.603Z,16.00
2018-12-23T15:27:29.621Z,12.00
2018-12-23T15:28:29.575Z,16.00
2018-12-23T15:29:29.571Z,16.00
2018-12-23T15:30:29.610Z,12.00
2018-12-23T15:31:29.544Z,12.00
2018-12-23T15:32:29.544Z,8.00